Austinville, Pennsylvania
Current Conditions -  °F | °C
As of 4:53 PM on Monday 24 Nov 2014 (Local Time) from KELM Reporting Station
Light Rain Light Rain  
Wind Chill: 19°   Ceiling: 6000
Heat Index: 19°   Visibility: 10mi
Dew Point: 10°   Wind: 15mph
Humidity: 54%   Direction: 210°SSW
Pressure: 29.44"   Gusts: 28mph
Location:  41.8495°N, 76.7925°W
Report Text: KELM 242153Z 21013G24KT 10SM -RA FEW031 BKN060 OVC090 19/10 A2944 RMK AO2 RAE2055B49 SLP965 P0000 T01940100
Loading
Personal Weather Stations






























Interactive Weather Map New forecast layout! Learn more

10-Day Weather Forecast

Advertisements
Track Severe Weather on mobile